sensor_id;sensor_type;location;lat;lon;timestamp;pressure;altitude;pressure_sealevel;temperature;humidity
29433;BME280;16405;53.964;13.448;2022-08-11T00:01:49;102211.19;;;13.73;100.00
29433;BME280;16405;53.964;13.448;2022-08-11T00:04:37;102207.69;;;13.73;100.00
29433;BME280;16405;53.964;13.448;2022-08-11T00:07:55;102210.41;;;13.71;100.00
29433;BME280;16405;53.964;13.448;2022-08-11T00:10:36;102206.88;;;13.71;100.00
29433;BME280;16405;53.964;13.448;2022-08-11T00:13:15;102203.41;;;13.69;100.00
29433;BME280;16405;53.964;13.448;2022-08-11T00:16:23;102202.72;;;13.64;100.00
29433;BME280;16405;53.964;13.448;2022-08-11T00:18:59;102199.44;;;13.57;100.00
29433;BME280;16405;53.964;13.448;2022-08-11T00:21:44;102208.03;;;13.64;100.00
29433;BME280;16405;53.964;13.448;2022-08-11T00:24:25;102208.03;;;13.64;100.00
29433;BME280;16405;53.964;13.448;2022-08-11T00:27:00;102205.38;;;13.64;100.00
29433;BME280;16405;53.964;13.448;2022-08-11T00:29:26;102200.94;;;13.64;100.00
29433;BME280;16405;53.964;13.448;2022-08-11T00:31:55;102205.34;;;13.65;100.00
29433;BME280;16405;53.964;13.448;2022-08-11T00:34:35;102202.72;;;13.64;100.00
29433;BME280;16405;53.964;13.448;2022-08-11T00:37:07;102204.59;;;13.60;100.00
29433;BME280;16405;53.964;13.448;2022-08-11T00:39:44;102194.31;;;13.52;100.00
29433;BME280;16405;53.964;13.448;2022-08-11T00:45:05;102200.81;;;13.44;100.00
29433;BME280;16405;53.964;13.448;2022-08-11T00:51:24;102202.19;;;13.29;100.00
29433;BME280;16405;53.964;13.448;2022-08-11T01:00:05;102197.25;;;13.18;100.00
29433;BME280;16405;53.964;13.448;2022-08-11T01:03:09;102196.59;;;13.11;100.00
29433;BME280;16405;53.964;13.448;2022-08-11T01:46:49;102202.88;;;12.52;100.00
29433;BME280;16405;53.964;13.448;2022-08-11T01:56:04;102203.47;;;12.34;100.00
29433;BME280;16405;53.964;13.448;2022-08-11T01:58:54;102207.25;;;12.25;100.00
29433;BME280;16405;53.964;13.448;2022-08-11T02:04:33;102197.47;;;12.29;100.00
29433;BME280;16405;53.964;13.448;2022-08-11T02:10:02;102206.81;;;12.39;100.00
29433;BME280;16405;53.964;13.448;2022-08-11T02:13:16;102192.66;;;12.42;100.00
29433;BME280;16405;53.964;13.448;2022-08-11T02:15:50;102198.63;;;12.48;100.00
29433;BME280;16405;53.964;13.448;2022-08-11T02:18:33;102194.09;;;12.52;100.00
29433;BME280;16405;53.964;13.448;2022-08-11T02:21:28;102197.50;;;12.56;100.00
29433;BME280;16405;53.964;13.448;2022-08-11T02:24:40;102199.19;;;12.58;100.00
29433;BME280;16405;53.964;13.448;2022-08-11T02:27:20;102199.16;;;12.60;100.00
29433;BME280;16405;53.964;13.448;2022-08-11T02:30:13;102200.78;;;12.64;100.00
29433;BME280;16405;53.964;13.448;2022-08-11T02:33:21;102198.19;;;12.62;100.00
29433;BME280;16405;53.964;13.448;2022-08-11T02:36:11;102195.53;;;12.62;100.00
29433;BME280;16405;53.964;13.448;2022-08-11T02:45:51;102191.22;;;12.60;100.00
29433;BME280;16405;53.964;13.448;2022-08-11T02:48:57;102193.94;;;12.57;100.00
29433;BME280;16405;53.964;13.448;2022-08-11T02:52:46;102193.34;;;12.48;100.00
29433;BME280;16405;53.964;13.448;2022-08-11T03:01:16;102193.00;;;12.31;100.00
29433;BME280;16405;53.964;13.448;2022-08-11T03:03:56;102189.41;;;12.34;100.00
29433;BME280;16405;53.964;13.448;2022-08-11T03:06:47;102189.22;;;12.40;100.00
29433;BME280;16405;53.964;13.448;2022-08-11T03:13:18;102179.69;;;12.34;100.00
29433;BME280;16405;53.964;13.448;2022-08-11T03:22:32;102171.94;;;12.28;100.00
29433;BME280;16405;53.964;13.448;2022-08-11T03:25:14;102172.91;;;12.25;100.00
29433;BME280;16405;53.964;13.448;2022-08-11T03:28:03;102173.88;;;12.23;100.00
29433;BME280;16405;53.964;13.448;2022-08-11T03:30:41;102171.41;;;12.17;100.00
29433;BME280;16405;53.964;13.448;2022-08-11T03:33:29;102174.25;;;12.10;100.00
29433;BME280;16405;53.964;13.448;2022-08-11T03:45:16;102164.38;;;11.86;100.00
29433;BME280;16405;53.964;13.448;2022-08-11T03:48:24;102163.47;;;11.88;100.00
29433;BME280;16405;53.964;13.448;2022-08-11T04:06:30;102167.75;;;11.93;100.00
29433;BME280;16405;53.964;13.448;2022-08-11T04:24:57;102180.41;;;12.67;100.00
29433;BME280;16405;53.964;13.448;2022-08-11T04:31:07;102193.94;;;17.47;92.71
29433;BME280;16405;53.964;13.448;2022-08-11T04:34:11;102196.19;;;19.15;77.40
29433;BME280;16405;53.964;13.448;2022-08-11T04:37:19;102202.97;;;20.64;70.21
29433;BME280;16405;53.964;13.448;2022-08-11T04:46:25;102226.06;;;24.98;56.21
29433;BME280;16405;53.964;13.448;2022-08-11T04:56:11;102242.97;;;28.74;47.33
29433;BME280;16405;53.964;13.448;2022-08-11T04:59:50;102244.25;;;30.02;44.55
29433;BME280;16405;53.964;13.448;2022-08-11T05:05:27;102268.69;;;32.79;42.22
29433;BME280;16405;53.964;13.448;2022-08-11T05:14:50;102284.19;;;35.38;36.70
29433;BME280;16405;53.964;13.448;2022-08-11T05:17:43;102284.16;;;35.10;36.77
29433;BME280;16405;53.964;13.448;2022-08-11T05:20:28;102297.47;;;35.41;36.02
29433;BME280;16405;53.964;13.448;2022-08-11T05:23:13;102311.91;;;36.13;35.75
29433;BME280;16405;53.964;13.448;2022-08-11T05:26:00;102318.59;;;36.59;35.42
29433;BME280;16405;53.964;13.448;2022-08-11T05:29:00;102323.53;;;38.10;33.65
29433;BME280;16405;53.964;13.448;2022-08-11T05:31:54;102324.53;;;38.74;32.44
29433;BME280;16405;53.964;13.448;2022-08-11T05:34:51;102335.72;;;39.11;31.78
29433;BME280;16405;53.964;13.448;2022-08-11T05:40:11;102347.44;;;40.00;29.81
29433;BME280;16405;53.964;13.448;2022-08-11T05:43:02;102353.84;;;40.49;30.27
29433;BME280;16405;53.964;13.448;2022-08-11T05:46:04;102353.22;;;40.66;30.04
29433;BME280;16405;53.964;13.448;2022-08-11T05:48:51;102349.34;;;40.85;29.80
29433;BME280;16405;53.964;13.448;2022-08-11T05:51:41;102356.53;;;41.16;29.61
29433;BME280;16405;53.964;13.448;2022-08-11T05:54:27;102360.47;;;41.09;29.22
29433;BME280;16405;53.964;13.448;2022-08-11T05:57:20;102364.03;;;41.63;28.67
29433;BME280;16405;53.964;13.448;2022-08-11T05:59:47;102362.13;;;41.75;28.44
29433;BME280;16405;53.964;13.448;2022-08-11T06:02:14;102370.63;;;41.97;28.09
29433;BME280;16405;53.964;13.448;2022-08-11T06:04:41;102363.31;;;41.68;28.36
29433;BME280;16405;53.964;13.448;2022-08-11T06:07:11;102372.44;;;41.68;28.07
29433;BME280;16405;53.964;13.448;2022-08-11T06:09:49;102370.38;;;41.40;28.26
29433;BME280;16405;53.964;13.448;2022-08-11T06:12:24;102363.56;;;41.12;28.77
29433;BME280;16405;53.964;13.448;2022-08-11T06:14:54;102358.81;;;41.31;28.08
29433;BME280;16405;53.964;13.448;2022-08-11T06:17:27;102354.78;;;41.04;28.37
29433;BME280;16405;53.964;13.448;2022-08-11T06:20:05;102358.94;;;40.15;28.86
29433;BME280;16405;53.964;13.448;2022-08-11T06:22:32;102348.50;;;41.15;28.39
29433;BME280;16405;53.964;13.448;2022-08-11T06:25:03;102356.63;;;40.12;28.96
29433;BME280;16405;53.964;13.448;2022-08-11T06:27:34;102349.94;;;40.57;28.94
29433;BME280;16405;53.964;13.448;2022-08-11T06:30:03;102343.63;;;40.38;29.01
29433;BME280;16405;53.964;13.448;2022-08-11T06:32:41;102340.06;;;38.03;30.67
29433;BME280;16405;53.964;13.448;2022-08-11T06:41:22;102313.91;;;36.46;32.67
29433;BME280;16405;53.964;13.448;2022-08-11T06:46:40;102310.22;;;36.73;32.41
29433;BME280;16405;53.964;13.448;2022-08-11T06:49:13;102293.00;;;35.90;32.99
29433;BME280;16405;53.964;13.448;2022-08-11T06:52:05;102301.19;;;37.00;30.90
29433;BME280;16405;53.964;13.448;2022-08-11T06:54:36;102295.28;;;36.21;32.38
29433;BME280;16405;53.964;13.448;2022-08-11T06:57:08;102296.00;;;34.74;34.34
29433;BME280;16405;53.964;13.448;2022-08-11T06:59:55;102284.94;;;36.98;31.76
29433;BME280;16405;53.964;13.448;2022-08-11T07:03:09;102281.84;;;36.40;32.33
29433;BME280;16405;53.964;13.448;2022-08-11T07:14:54;102282.13;;;38.50;30.56
29433;BME280;16405;53.964;13.448;2022-08-11T07:17:50;102280.94;;;37.54;30.14
29433;BME280;16405;53.964;13.448;2022-08-11T07:20:38;102277.41;;;36.45;31.89
29433;BME280;16405;53.964;13.448;2022-08-11T07:23:24;102273.09;;;37.51;30.92
29433;BME280;16405;53.964;13.448;2022-08-11T07:26:11;102278.84;;;38.98;29.81
29433;BME280;16405;53.964;13.448;2022-08-11T07:29:00;102269.97;;;37.34;30.97
29433;BME280;16405;53.964;13.448;2022-08-11T07:31:37;102272.97;;;38.17;30.07
29433;BME280;16405;53.964;13.448;2022-08-11T07:34:44;102263.75;;;38.37;30.03
29433;BME280;16405;53.964;13.448;2022-08-11T07:37:13;102272.72;;;38.96;29.54
29433;BME280;16405;53.964;13.448;2022-08-11T07:39:44;102258.38;;;38.17;29.40
29433;BME280;16405;53.964;13.448;2022-08-11T07:42:15;102254.97;;;37.10;31.91
29433;BME280;16405;53.964;13.448;2022-08-11T07:44:46;102256.84;;;37.36;31.16
29433;BME280;16405;53.964;13.448;2022-08-11T07:47:34;102250.09;;;37.59;30.98
29433;BME280;16405;53.964;13.448;2022-08-11T07:50:20;102254.16;;;38.01;30.89
29433;BME280;16405;53.964;13.448;2022-08-11T07:53:05;102253.06;;;37.57;30.56
29433;BME280;16405;53.964;13.448;2022-08-11T07:55:33;102257.69;;;37.36;30.92
29433;BME280;16405;53.964;13.448;2022-08-11T07:58:00;102246.53;;;36.17;31.76
29433;BME280;16405;53.964;13.448;2022-08-11T08:00:51;102248.31;;;36.44;31.31
29433;BME280;16405;53.964;13.448;2022-08-11T08:03:38;102252.78;;;36.04;31.77
29433;BME280;16405;53.964;13.448;2022-08-11T08:06:23;102246.72;;;36.90;31.11
29433;BME280;16405;53.964;13.448;2022-08-11T08:09:09;102244.03;;;35.80;31.11
29433;BME280;16405;53.964;13.448;2022-08-11T08:11:55;102241.34;;;35.93;31.99
29433;BME280;16405;53.964;13.448;2022-08-11T08:14:40;102239.59;;;35.72;32.19
29433;BME280;16405;53.964;13.448;2022-08-11T08:17:24;102231.78;;;36.18;32.69
29433;BME280;16405;53.964;13.448;2022-08-11T08:20:13;102240.31;;;36.49;32.22
29433;BME280;16405;53.964;13.448;2022-08-11T08:22:40;102241.56;;;36.47;30.61
29433;BME280;16405;53.964;13.448;2022-08-11T08:25:08;102231.00;;;35.54;31.80
29433;BME280;16405;53.964;13.448;2022-08-11T08:27:35;102231.16;;;35.46;29.99
29433;BME280;16405;53.964;13.448;2022-08-11T08:30:05;102233.19;;;35.09;30.87
29433;BME280;16405;53.964;13.448;2022-08-11T08:32:50;102230.31;;;34.52;31.36
29433;BME280;16405;53.964;13.448;2022-08-11T08:35:18;102223.91;;;34.09;31.69
29433;BME280;16405;53.964;13.448;2022-08-11T08:37:44;102230.63;;;33.77;32.17
29433;BME280;16405;53.964;13.448;2022-08-11T08:40:10;102218.38;;;33.58;32.74
29433;BME280;16405;53.964;13.448;2022-08-11T08:42:49;102215.28;;;33.08;33.25
29433;BME280;16405;53.964;13.448;2022-08-11T08:45:18;102215.66;;;32.59;34.53
29433;BME280;16405;53.964;13.448;2022-08-11T08:47:53;102215.94;;;32.10;33.37
29433;BME280;16405;53.964;13.448;2022-08-11T08:50:23;102203.47;;;31.67;34.07
29433;BME280;16405;53.964;13.448;2022-08-11T08:53:11;102205.84;;;31.71;35.34
29433;BME280;16405;53.964;13.448;2022-08-11T08:55:38;102198.94;;;31.35;36.09
29433;BME280;16405;53.964;13.448;2022-08-11T08:58:06;102197.75;;;30.56;35.02
29433;BME280;16405;53.964;13.448;2022-08-11T09:00:44;102193.59;;;30.27;35.88
29433;BME280;16405;53.964;13.448;2022-08-11T09:03:12;102188.16;;;29.24;37.89
29433;BME280;16405;53.964;13.448;2022-08-11T09:05:39;102191.78;;;29.33;39.26
29433;BME280;16405;53.964;13.448;2022-08-11T09:08:05;102185.44;;;29.24;38.57
29433;BME280;16405;53.964;13.448;2022-08-11T09:10:33;102177.59;;;29.39;38.81
29433;BME280;16405;53.964;13.448;2022-08-11T09:13:00;102184.94;;;29.47;38.33
29433;BME280;16405;53.964;13.448;2022-08-11T09:15:28;102179.13;;;29.41;38.37
29433;BME280;16405;53.964;13.448;2022-08-11T09:17:58;102181.38;;;29.46;37.20
29433;BME280;16405;53.964;13.448;2022-08-11T09:20:37;102186.25;;;29.42;37.23
29433;BME280;16405;53.964;13.448;2022-08-11T09:23:08;102180.28;;;29.39;37.15
29433;BME280;16405;53.964;13.448;2022-08-11T09:25:56;102172.25;;;29.03;37.88
29433;BME280;16405;53.964;13.448;2022-08-11T09:28:46;102165.53;;;28.71;38.61
29433;BME280;16405;53.964;13.448;2022-08-11T09:31:15;102163.44;;;28.83;39.20
29433;BME280;16405;53.964;13.448;2022-08-11T09:33:42;102170.56;;;28.48;39.51
29433;BME280;16405;53.964;13.448;2022-08-11T09:36:11;102164.16;;;28.67;39.55
29433;BME280;16405;53.964;13.448;2022-08-11T09:38:56;102169.13;;;28.98;40.19
29433;BME280;16405;53.964;13.448;2022-08-11T09:41:43;102172.28;;;28.49;39.50
29433;BME280;16405;53.964;13.448;2022-08-11T09:44:12;102168.38;;;28.34;40.03
29433;BME280;16405;53.964;13.448;2022-08-11T09:46:57;102160.75;;;28.01;40.66
29433;BME280;16405;53.964;13.448;2022-08-11T09:49:25;102163.09;;;28.32;39.61
29433;BME280;16405;53.964;13.448;2022-08-11T09:51:53;102158.78;;;28.39;39.88
29433;BME280;16405;53.964;13.448;2022-08-11T09:54:26;102153.97;;;28.87;40.15
29433;BME280;16405;53.964;13.448;2022-08-11T09:56:53;102154.31;;;28.84;39.58
29433;BME280;16405;53.964;13.448;2022-08-11T09:59:37;102153.78;;;28.62;39.76
29433;BME280;16405;53.964;13.448;2022-08-11T10:02:06;102156.88;;;28.50;39.33
29433;BME280;16405;53.964;13.448;2022-08-11T10:04:42;102161.66;;;28.74;39.49
29433;BME280;16405;53.964;13.448;2022-08-11T10:07:15;102154.41;;;29.00;38.71
29433;BME280;16405;53.964;13.448;2022-08-11T10:09:52;102147.78;;;28.77;39.81
29433;BME280;16405;53.964;13.448;2022-08-11T10:12:36;102152.56;;;29.01;38.79
29433;BME280;16405;53.964;13.448;2022-08-11T10:15:16;102148.03;;;28.83;38.47
29433;BME280;16405;53.964;13.448;2022-08-11T10:18:23;102143.03;;;28.71;38.37
29433;BME280;16405;53.964;13.448;2022-08-11T10:21:46;102140.94;;;28.65;39.15
29433;BME280;16405;53.964;13.448;2022-08-11T10:24:55;102143.91;;;28.43;37.91
29433;BME280;16405;53.964;13.448;2022-08-11T10:27:42;102139.97;;;28.74;38.90
29433;BME280;16405;53.964;13.448;2022-08-11T10:30:10;102145.63;;;28.80;38.19
29433;BME280;16405;53.964;13.448;2022-08-11T10:32:56;102141.31;;;28.96;38.14
29433;BME280;16405;53.964;13.448;2022-08-11T10:35:43;102144.41;;;28.75;37.18
29433;BME280;16405;53.964;13.448;2022-08-11T10:38:13;102141.41;;;29.04;38.05
29433;BME280;16405;53.964;13.448;2022-08-11T10:40:46;102141.22;;;29.23;37.90
29433;BME280;16405;53.964;13.448;2022-08-11T10:43:34;102131.03;;;28.99;37.73
29433;BME280;16405;53.964;13.448;2022-08-11T10:46:02;102139.78;;;29.11;38.08
29433;BME280;16405;53.964;13.448;2022-08-11T10:48:46;102141.06;;;28.45;38.95
29433;BME280;16405;53.964;13.448;2022-08-11T10:51:13;102128.56;;;28.62;38.50
29433;BME280;16405;53.964;13.448;2022-08-11T10:53:45;102128.59;;;28.70;37.65
29433;BME280;16405;53.964;13.448;2022-08-11T10:56:37;102122.88;;;28.73;38.40
29433;BME280;16405;53.964;13.448;2022-08-11T10:59:27;102129.72;;;29.30;37.74
29433;BME280;16405;53.964;13.448;2022-08-11T11:01:55;102126.31;;;29.28;37.63
29433;BME280;16405;53.964;13.448;2022-08-11T11:04:32;102124.91;;;28.97;37.81
29433;BME280;16405;53.964;13.448;2022-08-11T11:07:21;102132.00;;;28.90;37.06
29433;BME280;16405;53.964;13.448;2022-08-11T11:09:53;102123.03;;;28.98;37.47
29433;BME280;16405;53.964;13.448;2022-08-11T11:12:50;102122.75;;;29.01;37.75
29433;BME280;16405;53.964;13.448;2022-08-11T11:15:34;102126.41;;;29.18;37.52
29433;BME280;16405;53.964;13.448;2022-08-11T11:18:24;102122.66;;;28.67;38.18
29433;BME280;16405;53.964;13.448;2022-08-11T11:21:02;102123.97;;;28.62;38.20
29433;BME280;16405;53.964;13.448;2022-08-11T11:26:59;102117.44;;;28.73;37.19
29433;BME280;16405;53.964;13.448;2022-08-11T11:30:05;102114.97;;;28.26;38.84
29433;BME280;16405;53.964;13.448;2022-08-11T11:37:45;102106.69;;;28.63;37.68
29433;BME280;16405;53.964;13.448;2022-08-11T11:40:17;102107.22;;;28.31;39.03
29433;BME280;16405;53.964;13.448;2022-08-11T11:42:50;102108.66;;;28.53;37.58
29433;BME280;16405;53.964;13.448;2022-08-11T11:45:20;102109.00;;;28.76;38.17
29433;BME280;16405;53.964;13.448;2022-08-11T11:47:55;102108.63;;;28.35;38.46
29433;BME280;16405;53.964;13.448;2022-08-11T11:50:28;102110.50;;;28.53;38.32
29433;BME280;16405;53.964;13.448;2022-08-11T11:52:55;102106.41;;;28.67;37.88
29433;BME280;16405;53.964;13.448;2022-08-11T11:55:24;102105.56;;;28.66;38.00
29433;BME280;16405;53.964;13.448;2022-08-11T11:57:53;102108.31;;;28.74;38.37
29433;BME280;16405;53.964;13.448;2022-08-11T12:00:39;102115.25;;;28.77;37.47
29433;BME280;16405;53.964;13.448;2022-08-11T12:07:13;102107.72;;;28.62;38.15
29433;BME280;16405;53.964;13.448;2022-08-11T12:09:59;102106.47;;;28.75;37.77
29433;BME280;16405;53.964;13.448;2022-08-11T12:12:26;102107.44;;;28.38;37.91
29433;BME280;16405;53.964;13.448;2022-08-11T12:15:11;102111.25;;;28.27;38.06
29433;BME280;16405;53.964;13.448;2022-08-11T12:17:37;102087.84;;;27.90;39.59
29433;BME280;16405;53.964;13.448;2022-08-11T12:20:05;102096.47;;;27.76;40.51
29433;BME280;16405;53.964;13.448;2022-08-11T12:22:32;102087.19;;;27.51;40.79
29433;BME280;16405;53.964;13.448;2022-08-11T12:25:17;102080.44;;;27.37;41.15
29433;BME280;16405;53.964;13.448;2022-08-11T12:28:02;102082.31;;;27.17;41.69
29433;BME280;16405;53.964;13.448;2022-08-11T12:30:29;102077.91;;;27.26;41.85
29433;BME280;16405;53.964;13.448;2022-08-11T12:32:56;102075.28;;;27.44;42.30
29433;BME280;16405;53.964;13.448;2022-08-11T12:35:22;102072.50;;;27.53;42.93
29433;BME280;16405;53.964;13.448;2022-08-11T12:37:53;102084.75;;;27.57;43.23
29433;BME280;16405;53.964;13.448;2022-08-11T12:40:24;102082.19;;;27.56;42.69
29433;BME280;16405;53.964;13.448;2022-08-11T12:43:16;102088.59;;;27.55;42.11
29433;BME280;16405;53.964;13.448;2022-08-11T12:46:09;102082.06;;;27.10;42.80
29433;BME280;16405;53.964;13.448;2022-08-11T12:48:44;102074.53;;;27.24;42.63
29433;BME280;16405;53.964;13.448;2022-08-11T12:51:36;102061.69;;;27.16;42.43
29433;BME280;16405;53.964;13.448;2022-08-11T12:54:43;102064.59;;;27.05;43.22
29433;BME280;16405;53.964;13.448;2022-08-11T12:57:30;102065.13;;;27.08;42.61
29433;BME280;16405;53.964;13.448;2022-08-11T13:00:16;102072.63;;;27.34;42.35
29433;BME280;16405;53.964;13.448;2022-08-11T13:03:02;102066.25;;;27.15;41.90
29433;BME280;16405;53.964;13.448;2022-08-11T13:05:53;102050.63;;;27.09;42.08
29433;BME280;16405;53.964;13.448;2022-08-11T13:08:23;102055.69;;;27.32;41.82
29433;BME280;16405;53.964;13.448;2022-08-11T13:10:52;102052.50;;;27.46;41.79
29433;BME280;16405;53.964;13.448;2022-08-11T13:13:39;102049.56;;;27.57;41.01
29433;BME280;16405;53.964;13.448;2022-08-11T13:16:08;102049.56;;;27.57;41.60
29433;BME280;16405;53.964;13.448;2022-08-11T13:18:37;102052.88;;;27.51;40.37
29433;BME280;16405;53.964;13.448;2022-08-11T13:21:08;102051.75;;;27.54;40.80
29433;BME280;16405;53.964;13.448;2022-08-11T13:23:35;102052.75;;;27.71;41.96
29433;BME280;16405;53.964;13.448;2022-08-11T13:26:03;102055.53;;;27.61;41.00
29433;BME280;16405;53.964;13.448;2022-08-11T13:28:29;102048.16;;;27.53;40.25
29433;BME280;16405;53.964;13.448;2022-08-11T13:30:56;102047.09;;;27.46;40.60
29433;BME280;16405;53.964;13.448;2022-08-11T13:33:46;102054.19;;;27.47;41.02
29433;BME280;16405;53.964;13.448;2022-08-11T13:36:19;102048.16;;;27.81;40.12
29433;BME280;16405;53.964;13.448;2022-08-11T13:38:47;102038.94;;;27.74;40.19
29433;BME280;16405;53.964;13.448;2022-08-11T13:41:14;102038.09;;;27.73;40.14
29433;BME280;16405;53.964;13.448;2022-08-11T13:44:01;102039.31;;;27.89;40.24
29433;BME280;16405;53.964;13.448;2022-08-11T13:46:28;102047.16;;;27.82;39.38
29433;BME280;16405;53.964;13.448;2022-08-11T13:48:55;102040.63;;;27.75;38.99
29433;BME280;16405;53.964;13.448;2022-08-11T13:51:24;102032.63;;;27.83;39.54
29433;BME280;16405;53.964;13.448;2022-08-11T13:54:17;102038.50;;;27.78;39.17
29433;BME280;16405;53.964;13.448;2022-08-11T13:56:47;102023.34;;;27.86;38.99
29433;BME280;16405;53.964;13.448;2022-08-11T13:59:18;102029.69;;;27.94;40.18
29433;BME280;16405;53.964;13.448;2022-08-11T14:02:03;102028.25;;;27.54;39.81
29433;BME280;16405;53.964;13.448;2022-08-11T14:04:55;102023.34;;;27.40;40.13
29433;BME280;16405;53.964;13.448;2022-08-11T14:07:29;102022.25;;;27.60;40.33
29433;BME280;16405;53.964;13.448;2022-08-11T14:10:00;102035.13;;;27.67;40.08
29433;BME280;16405;53.964;13.448;2022-08-11T14:12:30;102021.41;;;27.78;38.94
29433;BME280;16405;53.964;13.448;2022-08-11T14:15:33;102029.81;;;27.75;39.66
29433;BME280;16405;53.964;13.448;2022-08-11T14:18:08;102029.31;;;27.89;39.76
29433;BME280;16405;53.964;13.448;2022-08-11T14:20:41;102018.94;;;27.85;39.48
29433;BME280;16405;53.964;13.448;2022-08-11T14:23:38;102016.50;;;27.91;39.61
29433;BME280;16405;53.964;13.448;2022-08-11T14:26:07;102017.81;;;27.87;39.10
29433;BME280;16405;53.964;13.448;2022-08-11T14:29:03;102035.63;;;27.80;40.03
29433;BME280;16405;53.964;13.448;2022-08-11T14:31:32;102028.25;;;27.54;38.84
29433;BME280;16405;53.964;13.448;2022-08-11T14:34:03;102029.06;;;27.65;39.21
29433;BME280;16405;53.964;13.448;2022-08-11T14:36:42;102026.34;;;27.65;39.34
29433;BME280;16405;53.964;13.448;2022-08-11T14:39:15;102022.94;;;27.63;40.35
29433;BME280;16405;53.964;13.448;2022-08-11T14:42:02;102022.91;;;27.90;40.24
29433;BME280;16405;53.964;13.448;2022-08-11T14:45:16;102025.78;;;27.89;38.98
29433;BME280;16405;53.964;13.448;2022-08-11T14:48:08;102023.13;;;27.51;37.64
29433;BME280;16405;53.964;13.448;2022-08-11T14:50:34;102026.47;;;27.45;39.27
29433;BME280;16405;53.964;13.448;2022-08-11T14:53:06;102021.56;;;27.49;39.32
29433;BME280;16405;53.964;13.448;2022-08-11T14:55:42;102019.53;;;27.33;39.10
29433;BME280;16405;53.964;13.448;2022-08-11T14:58:29;102019.28;;;27.26;39.99
29433;BME280;16405;53.964;13.448;2022-08-11T15:01:00;102019.84;;;27.20;39.84
29433;BME280;16405;53.964;13.448;2022-08-11T15:03:30;102020.31;;;26.58;40.35
29433;BME280;16405;53.964;13.448;2022-08-11T15:06:01;102001.41;;;26.68;40.42
29433;BME280;16405;53.964;13.448;2022-08-11T15:08:33;101999.16;;;26.64;41.72
29433;BME280;16405;53.964;13.448;2022-08-11T15:11:24;101991.19;;;26.43;41.35
29433;BME280;16405;53.964;13.448;2022-08-11T15:14:10;102002.28;;;26.59;40.86
29433;BME280;16405;53.964;13.448;2022-08-11T15:16:41;101997.56;;;26.51;41.26
29433;BME280;16405;53.964;13.448;2022-08-11T15:19:29;101983.78;;;26.64;40.71
29433;BME280;16405;53.964;13.448;2022-08-11T15:21:55;101983.28;;;26.12;41.11
29433;BME280;16405;53.964;13.448;2022-08-11T15:24:40;101985.69;;;26.05;40.60
29433;BME280;16405;53.964;13.448;2022-08-11T15:27:16;101976.44;;;26.27;41.76
29433;BME280;16405;53.964;13.448;2022-08-11T15:30:05;101979.09;;;26.37;41.99
29433;BME280;16405;53.964;13.448;2022-08-11T15:32:51;101972.19;;;26.15;42.41
29433;BME280;16405;53.964;13.448;2022-08-11T15:35:37;101968.63;;;26.05;42.17
29433;BME280;16405;53.964;13.448;2022-08-11T15:38:23;101970.06;;;25.89;42.08
29433;BME280;16405;53.964;13.448;2022-08-11T15:40:50;101974.41;;;25.81;42.77
29433;BME280;16405;53.964;13.448;2022-08-11T15:43:49;101957.94;;;25.54;42.99
29433;BME280;16405;53.964;13.448;2022-08-11T15:46:44;101961.00;;;25.21;42.13
29433;BME280;16405;53.964;13.448;2022-08-11T15:49:13;101959.53;;;25.16;43.68
29433;BME280;16405;53.964;13.448;2022-08-11T15:51:59;101957.44;;;25.20;43.68
29433;BME280;16405;53.964;13.448;2022-08-11T15:54:31;101956.47;;;25.00;44.53
29433;BME280;16405;53.964;13.448;2022-08-11T15:57:00;101951.19;;;24.89;44.61
29433;BME280;16405;53.964;13.448;2022-08-11T15:59:33;101950.72;;;24.84;45.03
29433;BME280;16405;53.964;13.448;2022-08-11T16:02:22;101954.44;;;24.83;45.09
29433;BME280;16405;53.964;13.448;2022-08-11T16:04:50;101952.91;;;24.59;45.40
29433;BME280;16405;53.964;13.448;2022-08-11T16:07:22;101953.75;;;24.60;44.75
29433;BME280;16405;53.964;13.448;2022-08-11T16:10:11;101948.75;;;24.55;45.03
29433;BME280;16405;53.964;13.448;2022-08-11T16:12:46;101943.56;;;24.42;45.68
29433;BME280;16405;53.964;13.448;2022-08-11T16:15:53;101942.97;;;24.39;46.34
29433;BME280;16405;53.964;13.448;2022-08-11T16:18:47;101938.84;;;24.34;46.10
29433;BME280;16405;53.964;13.448;2022-08-11T16:21:34;101941.59;;;24.23;47.31
29433;BME280;16405;53.964;13.448;2022-08-11T16:24:06;101939.50;;;24.27;48.23
29433;BME280;16405;53.964;13.448;2022-08-11T16:26:33;101939.38;;;24.28;48.36
29433;BME280;16405;53.964;13.448;2022-08-11T16:29:02;101940.16;;;24.19;47.69
29433;BME280;16405;53.964;13.448;2022-08-11T16:31:28;101939.03;;;24.01;46.91
29433;BME280;16405;53.964;13.448;2022-08-11T16:33:56;101940.78;;;23.90;47.39
29433;BME280;16405;53.964;13.448;2022-08-11T16:36:24;101931.84;;;23.90;47.45
29433;BME280;16405;53.964;13.448;2022-08-11T16:39:10;101929.09;;;23.80;48.07
29433;BME280;16405;53.964;13.448;2022-08-11T16:41:39;101931.41;;;23.85;48.59
29433;BME280;16405;53.964;13.448;2022-08-11T16:44:26;101933.50;;;23.70;48.74
29433;BME280;16405;53.964;13.448;2022-08-11T16:47:15;101935.47;;;23.68;49.20
29433;BME280;16405;53.964;13.448;2022-08-11T16:49:51;101938.63;;;23.73;49.92
29433;BME280;16405;53.964;13.448;2022-08-11T16:52:19;101936.25;;;23.59;50.94
29433;BME280;16405;53.964;13.448;2022-08-11T16:54:47;101936.75;;;23.52;51.28